Kitts Hill, Ohio
Current Conditions -  °F | °C
As of 3:35 AM on Sunday 23 Nov 2014 (Local Time) from KDWU Reporting Station
Overcast Overcast  
Wind Chill: 38°   Ceiling: 11000
Heat Index: 41°   Visibility: 10mi
Dew Point: 30°   Wind: 5mph
Humidity: 65%   Direction: 110°ESE
Pressure: 30.07"   Gusts: NA
Location:  38.56°N, 82.58°W
Report Text: KDWU 230835Z AUTO 11004KT 10SM OVC110 05/M01 A3007 RMK AO1
Loading
Personal Weather Stations






























Interactive Weather Map New forecast layout! Learn more

10-Day Weather Forecast

Advertisements
Track Severe Weather on mobile